3VA8 weather

Garner Airport
Windsor, Virginia, United States

Public forecast

Using degrees Fahrenheit for public forecast. Weather courtesy of forecast.io.

Closest aviation weather report (METAR) to Garner Airport

Closest report is Suffolk Executive Airport, 11.1 nm (20.6 km) SSE. Retrieved 2019/11/14 12:35 UTC (6 minutes ago):

KSFQ 141235Z AUTO 00000KT 10SM CLR M03/M04 A3045 RMK AO2 T10271038

Closest aviation forecast (TAF) to Garner Airport

Closest forecast is Felker Army Air Field, 17.0 nm (31.4 km) NNE. Retrieved 2019/11/14 11:58 UTC (43 minutes ago):

TAF KFAF 141100Z 1411/1517 VRB06KT 9999 FEW250 QNH3029INS BECMG 1502/1503 VRB06KT 9999 BKN030 QNH3027INS BECMG 1505/1506 35006KT 8000 -RA BKN015 OVC030 QNH3025INS BECMG 1508/1509 35006KT 9999 NSW BKN010 QNH3021INS BECMG 1513/1514 VRB06KT 8000 BR OVC005 QNH3012INS TX08/1418Z TNM03/1411Z